sensor_id;sensor_type;location;lat;lon;timestamp;temperature;humidity
17495;DHT22;8864;51.970;4.614;2023-12-22T00:01:56;15.30;86.00
17495;DHT22;8864;51.970;4.614;2023-12-22T00:04:23;15.30;86.30
17495;DHT22;8864;51.970;4.614;2023-12-22T00:06:49;15.30;86.10
17495;DHT22;8864;51.970;4.614;2023-12-22T00:09:19;15.30;86.00
17495;DHT22;8864;51.970;4.614;2023-12-22T00:11:46;15.30;86.00
17495;DHT22;8864;51.970;4.614;2023-12-22T00:14:13;15.30;85.80
17495;DHT22;8864;51.970;4.614;2023-12-22T00:16:40;15.30;85.60
17495;DHT22;8864;51.970;4.614;2023-12-22T00:19:07;15.30;85.60
17495;DHT22;8864;51.970;4.614;2023-12-22T00:21:34;15.30;85.50
17495;DHT22;8864;51.970;4.614;2023-12-22T00:24:01;15.30;85.40
17495;DHT22;8864;51.970;4.614;2023-12-22T00:26:30;15.20;85.30
17495;DHT22;8864;51.970;4.614;2023-12-22T00:28:57;15.30;85.30
17495;DHT22;8864;51.970;4.614;2023-12-22T00:31:24;15.30;85.40
17495;DHT22;8864;51.970;4.614;2023-12-22T00:33:51;15.30;85.30
17495;DHT22;8864;51.970;4.614;2023-12-22T00:36:18;15.20;85.00
17495;DHT22;8864;51.970;4.614;2023-12-22T00:38:48;15.30;85.00
17495;DHT22;8864;51.970;4.614;2023-12-22T00:41:15;15.30;84.90
17495;DHT22;8864;51.970;4.614;2023-12-22T00:43:45;15.30;84.80
17495;DHT22;8864;51.970;4.614;2023-12-22T00:46:13;15.20;84.70
17495;DHT22;8864;51.970;4.614;2023-12-22T00:48:40;15.30;84.60
17495;DHT22;8864;51.970;4.614;2023-12-22T00:51:06;15.20;84.50
17495;DHT22;8864;51.970;4.614;2023-12-22T00:53:34;15.30;84.40
17495;DHT22;8864;51.970;4.614;2023-12-22T00:56:01;15.20;84.10
17495;DHT22;8864;51.970;4.614;2023-12-22T00:58:28;15.20;84.00
17495;DHT22;8864;51.970;4.614;2023-12-22T01:00:57;15.30;84.00
17495;DHT22;8864;51.970;4.614;2023-12-22T01:03:23;15.20;83.80
17495;DHT22;8864;51.970;4.614;2023-12-22T01:05:49;15.20;83.60
17495;DHT22;8864;51.970;4.614;2023-12-22T01:08:16;15.20;83.60
17495;DHT22;8864;51.970;4.614;2023-12-22T01:10:43;15.20;83.50
17495;DHT22;8864;51.970;4.614;2023-12-22T01:13:10;15.20;83.50
17495;DHT22;8864;51.970;4.614;2023-12-22T01:15:37;15.20;83.40
17495;DHT22;8864;51.970;4.614;2023-12-22T01:18:05;15.20;83.30
17495;DHT22;8864;51.970;4.614;2023-12-22T01:20:32;15.20;83.30
17495;DHT22;8864;51.970;4.614;2023-12-22T01:22:59;15.20;83.20
17495;DHT22;8864;51.970;4.614;2023-12-22T01:25:26;15.20;83.00
17495;DHT22;8864;51.970;4.614;2023-12-22T01:27:53;15.20;82.90
17495;DHT22;8864;51.970;4.614;2023-12-22T01:30:20;15.20;82.70
17495;DHT22;8864;51.970;4.614;2023-12-22T01:32:47;15.20;82.70
17495;DHT22;8864;51.970;4.614;2023-12-22T01:35:16;15.20;82.60
17495;DHT22;8864;51.970;4.614;2023-12-22T01:37:42;15.20;82.40
17495;DHT22;8864;51.970;4.614;2023-12-22T01:40:10;15.20;82.30
17495;DHT22;8864;51.970;4.614;2023-12-22T01:42:37;15.20;82.30
17495;DHT22;8864;51.970;4.614;2023-12-22T01:45:06;15.20;82.20
17495;DHT22;8864;51.970;4.614;2023-12-22T01:47:34;15.20;82.10
17495;DHT22;8864;51.970;4.614;2023-12-22T01:50:04;15.20;82.10
17495;DHT22;8864;51.970;4.614;2023-12-22T01:52:33;15.10;82.00
17495;DHT22;8864;51.970;4.614;2023-12-22T01:55:00;15.10;81.80
17495;DHT22;8864;51.970;4.614;2023-12-22T01:57:29;15.20;81.80
17495;DHT22;8864;51.970;4.614;2023-12-22T01:59:56;15.20;81.70
17495;DHT22;8864;51.970;4.614;2023-12-22T02:02:24;15.10;81.50
17495;DHT22;8864;51.970;4.614;2023-12-22T02:04:51;15.20;81.50
17495;DHT22;8864;51.970;4.614;2023-12-22T02:07:18;15.20;81.40
17495;DHT22;8864;51.970;4.614;2023-12-22T02:09:46;15.20;81.30
17495;DHT22;8864;51.970;4.614;2023-12-22T02:12:13;15.10;81.30
17495;DHT22;8864;51.970;4.614;2023-12-22T02:14:39;15.10;81.20
17495;DHT22;8864;51.970;4.614;2023-12-22T02:17:14;15.20;81.30
17495;DHT22;8864;51.970;4.614;2023-12-22T02:19:45;15.10;81.30
17495;DHT22;8864;51.970;4.614;2023-12-22T02:22:12;15.10;81.30
17495;DHT22;8864;51.970;4.614;2023-12-22T02:24:41;15.10;81.30
17495;DHT22;8864;51.970;4.614;2023-12-22T02:27:17;15.10;81.30
17495;DHT22;8864;51.970;4.614;2023-12-22T02:29:51;15.10;81.30
17495;DHT22;8864;51.970;4.614;2023-12-22T02:32:23;15.10;81.30
17495;DHT22;8864;51.970;4.614;2023-12-22T02:34:53;15.20;81.50
17495;DHT22;8864;51.970;4.614;2023-12-22T02:37:22;15.10;81.40
17495;DHT22;8864;51.970;4.614;2023-12-22T02:39:51;15.10;81.40
17495;DHT22;8864;51.970;4.614;2023-12-22T02:42:19;15.10;81.50
17495;DHT22;8864;51.970;4.614;2023-12-22T02:44:50;15.10;81.40
17495;DHT22;8864;51.970;4.614;2023-12-22T02:47:17;15.10;81.30
17495;DHT22;8864;51.970;4.614;2023-12-22T02:49:44;15.10;81.30
17495;DHT22;8864;51.970;4.614;2023-12-22T02:52:12;15.10;81.40
17495;DHT22;8864;51.970;4.614;2023-12-22T02:54:39;15.10;81.30
17495;DHT22;8864;51.970;4.614;2023-12-22T02:57:08;15.10;81.40
17495;DHT22;8864;51.970;4.614;2023-12-22T02:59:36;15.10;81.40
17495;DHT22;8864;51.970;4.614;2023-12-22T03:02:03;15.10;81.40
17495;DHT22;8864;51.970;4.614;2023-12-22T03:04:30;15.10;81.50
17495;DHT22;8864;51.970;4.614;2023-12-22T03:06:58;15.10;81.40
17495;DHT22;8864;51.970;4.614;2023-12-22T03:09:25;15.10;81.30
17495;DHT22;8864;51.970;4.614;2023-12-22T03:11:52;15.10;81.30
17495;DHT22;8864;51.970;4.614;2023-12-22T03:14:21;15.10;81.30
17495;DHT22;8864;51.970;4.614;2023-12-22T03:16:48;15.10;81.30
17495;DHT22;8864;51.970;4.614;2023-12-22T03:19:15;15.10;81.20
17495;DHT22;8864;51.970;4.614;2023-12-22T03:21:42;15.10;81.20
17495;DHT22;8864;51.970;4.614;2023-12-22T03:24:09;15.10;81.20
17495;DHT22;8864;51.970;4.614;2023-12-22T03:26:36;15.10;81.20
17495;DHT22;8864;51.970;4.614;2023-12-22T03:29:03;15.10;81.10
17495;DHT22;8864;51.970;4.614;2023-12-22T03:31:32;15.10;81.10
17495;DHT22;8864;51.970;4.614;2023-12-22T03:33:59;15.10;81.10
17495;DHT22;8864;51.970;4.614;2023-12-22T03:36:26;15.10;81.00
17495;DHT22;8864;51.970;4.614;2023-12-22T03:38:52;15.10;81.10
17495;DHT22;8864;51.970;4.614;2023-12-22T03:41:19;15.10;81.00
17495;DHT22;8864;51.970;4.614;2023-12-22T03:43:46;15.10;81.80
17495;DHT22;8864;51.970;4.614;2023-12-22T03:46:13;15.10;81.00
17495;DHT22;8864;51.970;4.614;2023-12-22T03:48:41;15.10;80.90
17495;DHT22;8864;51.970;4.614;2023-12-22T03:51:08;15.10;80.80
17495;DHT22;8864;51.970;4.614;2023-12-22T03:53:37;15.00;80.70
17495;DHT22;8864;51.970;4.614;2023-12-22T03:56:04;15.10;80.70
17495;DHT22;8864;51.970;4.614;2023-12-22T03:58:31;15.10;80.60
17495;DHT22;8864;51.970;4.614;2023-12-22T04:00:58;15.10;80.70
17495;DHT22;8864;51.970;4.614;2023-12-22T04:03:25;15.10;80.60
17495;DHT22;8864;51.970;4.614;2023-12-22T04:05:53;15.10;80.60
17495;DHT22;8864;51.970;4.614;2023-12-22T04:08:20;15.10;80.60
17495;DHT22;8864;51.970;4.614;2023-12-22T04:10:47;15.10;80.60
17495;DHT22;8864;51.970;4.614;2023-12-22T04:13:14;15.10;80.60
17495;DHT22;8864;51.970;4.614;2023-12-22T04:15:41;15.10;80.60
17495;DHT22;8864;51.970;4.614;2023-12-22T04:18:09;15.00;80.50
17495;DHT22;8864;51.970;4.614;2023-12-22T04:20:36;15.10;80.60
17495;DHT22;8864;51.970;4.614;2023-12-22T04:23:04;15.10;80.60
17495;DHT22;8864;51.970;4.614;2023-12-22T04:25:31;15.10;80.60
17495;DHT22;8864;51.970;4.614;2023-12-22T04:27:58;15.10;80.60
17495;DHT22;8864;51.970;4.614;2023-12-22T04:30:25;15.10;80.70
17495;DHT22;8864;51.970;4.614;2023-12-22T04:32:53;15.00;80.60
17495;DHT22;8864;51.970;4.614;2023-12-22T04:35:21;15.10;80.70
17495;DHT22;8864;51.970;4.614;2023-12-22T04:37:48;15.00;80.60
17495;DHT22;8864;51.970;4.614;2023-12-22T04:40:17;15.00;80.60
17495;DHT22;8864;51.970;4.614;2023-12-22T04:42:45;15.00;80.60
17495;DHT22;8864;51.970;4.614;2023-12-22T04:45:12;15.10;80.60
17495;DHT22;8864;51.970;4.614;2023-12-22T04:47:39;15.10;80.70
17495;DHT22;8864;51.970;4.614;2023-12-22T04:50:06;15.00;80.60
17495;DHT22;8864;51.970;4.614;2023-12-22T04:52:33;15.00;80.70
17495;DHT22;8864;51.970;4.614;2023-12-22T04:55:00;15.10;80.80
17495;DHT22;8864;51.970;4.614;2023-12-22T04:57:28;15.00;80.70
17495;DHT22;8864;51.970;4.614;2023-12-22T04:59:55;15.00;80.70
17495;DHT22;8864;51.970;4.614;2023-12-22T05:02:22;15.00;80.80
17495;DHT22;8864;51.970;4.614;2023-12-22T05:04:49;15.00;80.80
17495;DHT22;8864;51.970;4.614;2023-12-22T05:07:16;15.00;80.80
17495;DHT22;8864;51.970;4.614;2023-12-22T05:09:42;15.00;80.90
17495;DHT22;8864;51.970;4.614;2023-12-22T05:12:09;15.00;80.90
17495;DHT22;8864;51.970;4.614;2023-12-22T05:14:38;15.00;80.90
17495;DHT22;8864;51.970;4.614;2023-12-22T05:17:05;15.00;80.90
17495;DHT22;8864;51.970;4.614;2023-12-22T05:19:31;15.00;80.90
17495;DHT22;8864;51.970;4.614;2023-12-22T05:21:59;15.00;80.90
17495;DHT22;8864;51.970;4.614;2023-12-22T05:24:26;15.00;80.90
17495;DHT22;8864;51.970;4.614;2023-12-22T05:26:53;15.00;81.00
17495;DHT22;8864;51.970;4.614;2023-12-22T05:29:20;15.00;81.00
17495;DHT22;8864;51.970;4.614;2023-12-22T05:31:48;15.00;81.10
17495;DHT22;8864;51.970;4.614;2023-12-22T05:34:16;15.00;81.00
17495;DHT22;8864;51.970;4.614;2023-12-22T05:36:43;15.00;81.00
17495;DHT22;8864;51.970;4.614;2023-12-22T05:39:10;15.00;81.10
17495;DHT22;8864;51.970;4.614;2023-12-22T05:41:37;15.00;81.50
17495;DHT22;8864;51.970;4.614;2023-12-22T05:44:04;15.00;81.20
17495;DHT22;8864;51.970;4.614;2023-12-22T05:46:35;15.00;81.20
17495;DHT22;8864;51.970;4.614;2023-12-22T05:49:04;15.00;81.20
17495;DHT22;8864;51.970;4.614;2023-12-22T05:51:36;15.00;81.20
17495;DHT22;8864;51.970;4.614;2023-12-22T05:54:03;15.00;81.30
17495;DHT22;8864;51.970;4.614;2023-12-22T05:56:30;15.10;81.50
17495;DHT22;8864;51.970;4.614;2023-12-22T05:58:59;15.00;81.40
17495;DHT22;8864;51.970;4.614;2023-12-22T06:01:26;15.00;81.40
17495;DHT22;8864;51.970;4.614;2023-12-22T06:03:53;15.10;81.50
17495;DHT22;8864;51.970;4.614;2023-12-22T06:06:23;15.00;81.50
17495;DHT22;8864;51.970;4.614;2023-12-22T06:08:50;15.00;81.50
17495;DHT22;8864;51.970;4.614;2023-12-22T06:11:17;15.10;81.60
17495;DHT22;8864;51.970;4.614;2023-12-22T06:13:44;15.00;81.60
17495;DHT22;8864;51.970;4.614;2023-12-22T06:16:12;15.10;81.60
17495;DHT22;8864;51.970;4.614;2023-12-22T06:18:40;15.10;81.60
17495;DHT22;8864;51.970;4.614;2023-12-22T06:21:08;15.00;81.70
17495;DHT22;8864;51.970;4.614;2023-12-22T06:23:36;15.10;81.80
17495;DHT22;8864;51.970;4.614;2023-12-22T06:26:08;15.00;82.10
17495;DHT22;8864;51.970;4.614;2023-12-22T06:28:35;15.10;82.20
17495;DHT22;8864;51.970;4.614;2023-12-22T06:31:03;15.10;82.00
17495;DHT22;8864;51.970;4.614;2023-12-22T06:33:30;15.10;83.00
17495;DHT22;8864;51.970;4.614;2023-12-22T06:35:58;15.10;83.00
17495;DHT22;8864;51.970;4.614;2023-12-22T06:38:25;15.10;82.90
17495;DHT22;8864;51.970;4.614;2023-12-22T06:40:53;15.10;82.70
17495;DHT22;8864;51.970;4.614;2023-12-22T06:43:21;15.10;82.50
17495;DHT22;8864;51.970;4.614;2023-12-22T06:45:48;15.10;82.40
17495;DHT22;8864;51.970;4.614;2023-12-22T06:48:17;15.10;82.30
17495;DHT22;8864;51.970;4.614;2023-12-22T06:50:44;15.00;82.10
17495;DHT22;8864;51.970;4.614;2023-12-22T06:53:11;15.00;82.00
17495;DHT22;8864;51.970;4.614;2023-12-22T06:55:38;15.00;82.00
17495;DHT22;8864;51.970;4.614;2023-12-22T06:58:06;15.00;81.90
17495;DHT22;8864;51.970;4.614;2023-12-22T07:00:33;15.00;81.80
17495;DHT22;8864;51.970;4.614;2023-12-22T07:03:03;15.10;81.80
17495;DHT22;8864;51.970;4.614;2023-12-22T07:05:34;15.00;81.60
17495;DHT22;8864;51.970;4.614;2023-12-22T07:08:04;15.00;81.60
17495;DHT22;8864;51.970;4.614;2023-12-22T07:10:31;15.00;81.60
17495;DHT22;8864;51.970;4.614;2023-12-22T07:12:58;15.00;81.80
17495;DHT22;8864;51.970;4.614;2023-12-22T07:15:27;15.00;82.00
17495;DHT22;8864;51.970;4.614;2023-12-22T07:17:54;15.10;82.30
17495;DHT22;8864;51.970;4.614;2023-12-22T07:20:22;15.00;82.40
17495;DHT22;8864;51.970;4.614;2023-12-22T07:22:49;15.00;82.80
17495;DHT22;8864;51.970;4.614;2023-12-22T07:25:17;15.10;82.70
17495;DHT22;8864;51.970;4.614;2023-12-22T07:27:45;15.00;82.60
17495;DHT22;8864;51.970;4.614;2023-12-22T07:30:14;15.10;82.60
17495;DHT22;8864;51.970;4.614;2023-12-22T07:32:45;15.00;82.60
17495;DHT22;8864;51.970;4.614;2023-12-22T07:35:15;15.00;82.60
17495;DHT22;8864;51.970;4.614;2023-12-22T07:37:41;15.00;82.60
17495;DHT22;8864;51.970;4.614;2023-12-22T07:40:09;15.00;82.70
17495;DHT22;8864;51.970;4.614;2023-12-22T07:42:37;15.00;82.60
17495;DHT22;8864;51.970;4.614;2023-12-22T07:45:05;15.00;82.70
17495;DHT22;8864;51.970;4.614;2023-12-22T07:47:33;15.00;82.60
17495;DHT22;8864;51.970;4.614;2023-12-22T07:50:04;15.00;82.60
17495;DHT22;8864;51.970;4.614;2023-12-22T07:52:33;15.00;82.60
17495;DHT22;8864;51.970;4.614;2023-12-22T07:55:04;15.00;82.50
17495;DHT22;8864;51.970;4.614;2023-12-22T07:57:31;15.00;82.60
17495;DHT22;8864;51.970;4.614;2023-12-22T07:59:58;15.00;82.50
17495;DHT22;8864;51.970;4.614;2023-12-22T08:02:26;15.00;82.60
17495;DHT22;8864;51.970;4.614;2023-12-22T08:04:53;15.00;82.60
17495;DHT22;8864;51.970;4.614;2023-12-22T08:07:21;15.00;82.50
17495;DHT22;8864;51.970;4.614;2023-12-22T08:09:48;15.00;82.60
17495;DHT22;8864;51.970;4.614;2023-12-22T08:12:15;15.00;82.70
17495;DHT22;8864;51.970;4.614;2023-12-22T08:14:42;15.00;82.70
17495;DHT22;8864;51.970;4.614;2023-12-22T08:17:09;15.00;82.60
17495;DHT22;8864;51.970;4.614;2023-12-22T08:19:36;15.00;83.20
17495;DHT22;8864;51.970;4.614;2023-12-22T08:22:03;15.00;83.00
17495;DHT22;8864;51.970;4.614;2023-12-22T08:24:32;15.00;82.90
17495;DHT22;8864;51.970;4.614;2023-12-22T08:26:59;15.00;82.90
17495;DHT22;8864;51.970;4.614;2023-12-22T08:29:26;15.00;82.80
17495;DHT22;8864;51.970;4.614;2023-12-22T08:31:53;15.00;82.70
17495;DHT22;8864;51.970;4.614;2023-12-22T08:34:20;15.00;83.30
17495;DHT22;8864;51.970;4.614;2023-12-22T08:36:47;15.00;83.80
17495;DHT22;8864;51.970;4.614;2023-12-22T08:39:14;15.00;83.40
17495;DHT22;8864;51.970;4.614;2023-12-22T08:41:43;15.10;84.50
17495;DHT22;8864;51.970;4.614;2023-12-22T08:44:10;15.10;84.30
17495;DHT22;8864;51.970;4.614;2023-12-22T08:46:40;15.10;84.40
17495;DHT22;8864;51.970;4.614;2023-12-22T08:49:07;15.10;84.90
17495;DHT22;8864;51.970;4.614;2023-12-22T08:51:34;15.10;84.40
17495;DHT22;8864;51.970;4.614;2023-12-22T08:54:00;15.20;84.40
17495;DHT22;8864;51.970;4.614;2023-12-22T08:56:27;15.10;84.10
17495;DHT22;8864;51.970;4.614;2023-12-22T08:58:56;15.10;84.00
17495;DHT22;8864;51.970;4.614;2023-12-22T09:01:25;15.10;83.80
17495;DHT22;8864;51.970;4.614;2023-12-22T09:03:52;15.10;83.80
17495;DHT22;8864;51.970;4.614;2023-12-22T09:06:20;15.10;84.10
17495;DHT22;8864;51.970;4.614;2023-12-22T09:08:47;15.10;84.80
17495;DHT22;8864;51.970;4.614;2023-12-22T09:11:16;15.10;84.40
17495;DHT22;8864;51.970;4.614;2023-12-22T09:13:44;15.10;84.10
17495;DHT22;8864;51.970;4.614;2023-12-22T09:16:12;15.10;84.00
17495;DHT22;8864;51.970;4.614;2023-12-22T09:18:40;15.10;83.90
17495;DHT22;8864;51.970;4.614;2023-12-22T09:21:08;15.10;83.80
17495;DHT22;8864;51.970;4.614;2023-12-22T09:23:35;15.10;84.40
17495;DHT22;8864;51.970;4.614;2023-12-22T09:26:02;15.10;85.00
17495;DHT22;8864;51.970;4.614;2023-12-22T09:28:30;15.10;84.60
17495;DHT22;8864;51.970;4.614;2023-12-22T09:30:57;15.10;86.00
17495;DHT22;8864;51.970;4.614;2023-12-22T09:33:26;15.20;86.10
17495;DHT22;8864;51.970;4.614;2023-12-22T09:35:53;15.20;85.60
17495;DHT22;8864;51.970;4.614;2023-12-22T09:38:20;15.20;85.10
17495;DHT22;8864;51.970;4.614;2023-12-22T09:40:49;15.10;84.90
17495;DHT22;8864;51.970;4.614;2023-12-22T09:43:16;15.10;84.70
17495;DHT22;8864;51.970;4.614;2023-12-22T09:45:45;15.10;84.60
17495;DHT22;8864;51.970;4.614;2023-12-22T09:48:13;15.10;84.50
17495;DHT22;8864;51.970;4.614;2023-12-22T09:50:44;15.10;84.40
17495;DHT22;8864;51.970;4.614;2023-12-22T09:53:13;15.00;84.40
17495;DHT22;8864;51.970;4.614;2023-12-22T09:55:44;15.00;84.60
17495;DHT22;8864;51.970;4.614;2023-12-22T09:58:12;15.00;84.40
17495;DHT22;8864;51.970;4.614;2023-12-22T10:00:41;15.10;84.40
17495;DHT22;8864;51.970;4.614;2023-12-22T10:03:10;15.10;84.50
17495;DHT22;8864;51.970;4.614;2023-12-22T10:05:38;15.10;84.40
17495;DHT22;8864;51.970;4.614;2023-12-22T10:08:08;15.00;84.40
17495;DHT22;8864;51.970;4.614;2023-12-22T10:10:38;15.10;84.40
17495;DHT22;8864;51.970;4.614;2023-12-22T10:13:05;15.10;84.30
17495;DHT22;8864;51.970;4.614;2023-12-22T10:15:36;15.10;84.30
17495;DHT22;8864;51.970;4.614;2023-12-22T10:18:06;15.10;84.30
17495;DHT22;8864;51.970;4.614;2023-12-22T10:20:33;15.00;84.10
17495;DHT22;8864;51.970;4.614;2023-12-22T10:23:01;15.00;84.10
17495;DHT22;8864;51.970;4.614;2023-12-22T10:25:30;15.00;84.10
17495;DHT22;8864;51.970;4.614;2023-12-22T10:27:58;15.00;84.10
17495;DHT22;8864;51.970;4.614;2023-12-22T10:30:25;15.00;84.10
17495;DHT22;8864;51.970;4.614;2023-12-22T10:32:53;15.00;84.00
17495;DHT22;8864;51.970;4.614;2023-12-22T10:35:20;15.00;84.00
17495;DHT22;8864;51.970;4.614;2023-12-22T10:37:47;15.00;85.30
17495;DHT22;8864;51.970;4.614;2023-12-22T10:40:17;15.00;85.30
17495;DHT22;8864;51.970;4.614;2023-12-22T10:42:45;15.10;85.60
17495;DHT22;8864;51.970;4.614;2023-12-22T10:45:12;15.00;85.60
17495;DHT22;8864;51.970;4.614;2023-12-22T10:47:41;15.10;85.50
17495;DHT22;8864;51.970;4.614;2023-12-22T10:50:08;15.10;85.30
17495;DHT22;8864;51.970;4.614;2023-12-22T10:52:38;15.10;85.80
17495;DHT22;8864;51.970;4.614;2023-12-22T10:55:06;15.10;85.60
17495;DHT22;8864;51.970;4.614;2023-12-22T10:57:33;15.10;85.50
17495;DHT22;8864;51.970;4.614;2023-12-22T11:00:07;15.10;85.30
17495;DHT22;8864;51.970;4.614;2023-12-22T11:02:35;15.10;85.30
17495;DHT22;8864;51.970;4.614;2023-12-22T11:05:04;15.10;85.20
17495;DHT22;8864;51.970;4.614;2023-12-22T11:07:33;15.10;85.00
17495;DHT22;8864;51.970;4.614;2023-12-22T11:10:04;15.00;85.40
17495;DHT22;8864;51.970;4.614;2023-12-22T11:12:35;15.10;86.40
17495;DHT22;8864;51.970;4.614;2023-12-22T11:15:04;15.10;85.50
17495;DHT22;8864;51.970;4.614;2023-12-22T11:17:32;15.10;85.50
17495;DHT22;8864;51.970;4.614;2023-12-22T11:19:59;15.10;85.30
17495;DHT22;8864;51.970;4.614;2023-12-22T11:22:27;15.10;85.10
17495;DHT22;8864;51.970;4.614;2023-12-22T11:24:55;15.10;85.00
17495;DHT22;8864;51.970;4.614;2023-12-22T11:27:23;15.10;84.80
17495;DHT22;8864;51.970;4.614;2023-12-22T11:29:52;15.10;84.70
17495;DHT22;8864;51.970;4.614;2023-12-22T11:32:21;15.10;84.50
17495;DHT22;8864;51.970;4.614;2023-12-22T11:34:48;15.10;84.40
17495;DHT22;8864;51.970;4.614;2023-12-22T11:37:16;15.10;84.30
17495;DHT22;8864;51.970;4.614;2023-12-22T11:39:44;15.10;84.30
17495;DHT22;8864;51.970;4.614;2023-12-22T11:42:14;15.10;84.10
17495;DHT22;8864;51.970;4.614;2023-12-22T11:44:42;15.10;84.10
17495;DHT22;8864;51.970;4.614;2023-12-22T11:47:09;15.00;84.00
17495;DHT22;8864;51.970;4.614;2023-12-22T11:49:40;15.10;84.00
17495;DHT22;8864;51.970;4.614;2023-12-22T11:52:11;15.00;83.90
17495;DHT22;8864;51.970;4.614;2023-12-22T11:54:45;15.10;83.90
17495;DHT22;8864;51.970;4.614;2023-12-22T11:57:35;15.10;83.80
17495;DHT22;8864;51.970;4.614;2023-12-22T12:00:07;15.10;83.80
17495;DHT22;8864;51.970;4.614;2023-12-22T12:02:36;15.10;83.80
17495;DHT22;8864;51.970;4.614;2023-12-22T12:05:07;15.00;83.60
17495;DHT22;8864;51.970;4.614;2023-12-22T12:07:42;15.10;83.60
17495;DHT22;8864;51.970;4.614;2023-12-22T12:10:12;15.10;83.60
17495;DHT22;8864;51.970;4.614;2023-12-22T12:12:40;15.10;83.60
17495;DHT22;8864;51.970;4.614;2023-12-22T12:15:08;15.10;83.60
17495;DHT22;8864;51.970;4.614;2023-12-22T12:17:39;15.10;83.50
17495;DHT22;8864;51.970;4.614;2023-12-22T12:20:09;15.10;83.50
17495;DHT22;8864;51.970;4.614;2023-12-22T12:22:37;15.00;83.50
17495;DHT22;8864;51.970;4.614;2023-12-22T12:25:09;15.10;83.60
17495;DHT22;8864;51.970;4.614;2023-12-22T12:27:38;15.10;83.60
17495;DHT22;8864;51.970;4.614;2023-12-22T12:30:13;15.10;84.10
17495;DHT22;8864;51.970;4.614;2023-12-22T12:32:42;15.10;84.80
17495;DHT22;8864;51.970;4.614;2023-12-22T12:35:13;15.10;85.00
17495;DHT22;8864;51.970;4.614;2023-12-22T12:37:40;15.10;85.20
17495;DHT22;8864;51.970;4.614;2023-12-22T12:40:11;15.10;85.60
17495;DHT22;8864;51.970;4.614;2023-12-22T12:42:38;15.10;85.80
17495;DHT22;8864;51.970;4.614;2023-12-22T12:45:07;15.10;86.00
17495;DHT22;8864;51.970;4.614;2023-12-22T12:47:34;15.10;86.00
17495;DHT22;8864;51.970;4.614;2023-12-22T12:50:03;15.10;86.00
17495;DHT22;8864;51.970;4.614;2023-12-22T12:52:31;15.10;86.40
17495;DHT22;8864;51.970;4.614;2023-12-22T12:54:59;15.10;86.60
17495;DHT22;8864;51.970;4.614;2023-12-22T12:57:26;15.10;85.90
17495;DHT22;8864;51.970;4.614;2023-12-22T12:59:53;15.10;85.60
17495;DHT22;8864;51.970;4.614;2023-12-22T13:02:20;15.10;85.50
17495;DHT22;8864;51.970;4.614;2023-12-22T13:04:49;15.10;85.30
17495;DHT22;8864;51.970;4.614;2023-12-22T13:07:25;15.10;85.20
17495;DHT22;8864;51.970;4.614;2023-12-22T13:09:53;15.10;85.00
17495;DHT22;8864;51.970;4.614;2023-12-22T13:12:22;15.10;85.00
17495;DHT22;8864;51.970;4.614;2023-12-22T13:14:50;15.10;84.90
17495;DHT22;8864;51.970;4.614;2023-12-22T13:17:18;15.10;84.70
17495;DHT22;8864;51.970;4.614;2023-12-22T13:19:45;15.10;84.70
17495;DHT22;8864;51.970;4.614;2023-12-22T13:22:12;15.10;85.80
17495;DHT22;8864;51.970;4.614;2023-12-22T13:24:39;15.20;87.20
17495;DHT22;8864;51.970;4.614;2023-12-22T13:27:09;15.20;87.30
17495;DHT22;8864;51.970;4.614;2023-12-22T13:29:43;15.20;86.90
17495;DHT22;8864;51.970;4.614;2023-12-22T13:32:16;15.20;86.60
17495;DHT22;8864;51.970;4.614;2023-12-22T13:34:50;15.10;86.20
17495;DHT22;8864;51.970;4.614;2023-12-22T13:37:17;15.20;86.20
17495;DHT22;8864;51.970;4.614;2023-12-22T13:39:43;15.20;86.00
17495;DHT22;8864;51.970;4.614;2023-12-22T13:42:16;15.20;86.00
17495;DHT22;8864;51.970;4.614;2023-12-22T13:44:44;15.20;86.50
17495;DHT22;8864;51.970;4.614;2023-12-22T13:47:14;15.20;87.20
17495;DHT22;8864;51.970;4.614;2023-12-22T13:49:41;15.20;86.90
17495;DHT22;8864;51.970;4.614;2023-12-22T13:52:16;15.20;86.80
17495;DHT22;8864;51.970;4.614;2023-12-22T13:54:50;15.20;86.90
17495;DHT22;8864;51.970;4.614;2023-12-22T13:57:23;15.20;87.20
17495;DHT22;8864;51.970;4.614;2023-12-22T13:59:50;15.20;86.90
17495;DHT22;8864;51.970;4.614;2023-12-22T14:02:21;15.20;86.90
17495;DHT22;8864;51.970;4.614;2023-12-22T14:04:49;15.20;86.80
17495;DHT22;8864;51.970;4.614;2023-12-22T14:07:16;15.10;86.70
17495;DHT22;8864;51.970;4.614;2023-12-22T14:09:43;15.10;86.80
17495;DHT22;8864;51.970;4.614;2023-12-22T14:12:11;15.10;86.70
17495;DHT22;8864;51.970;4.614;2023-12-22T14:14:39;15.10;86.60
17495;DHT22;8864;51.970;4.614;2023-12-22T14:17:06;15.20;86.60
17495;DHT22;8864;51.970;4.614;2023-12-22T14:19:33;15.10;87.80
17495;DHT22;8864;51.970;4.614;2023-12-22T14:22:00;15.20;87.80
17495;DHT22;8864;51.970;4.614;2023-12-22T14:24:28;15.20;87.50
17495;DHT22;8864;51.970;4.614;2023-12-22T14:26:56;15.20;88.00
17495;DHT22;8864;51.970;4.614;2023-12-22T14:29:23;15.20;87.20
17495;DHT22;8864;51.970;4.614;2023-12-22T14:31:52;15.20;87.20
17495;DHT22;8864;51.970;4.614;2023-12-22T14:34:19;15.20;87.10
17495;DHT22;8864;51.970;4.614;2023-12-22T14:36:47;15.20;87.00
17495;DHT22;8864;51.970;4.614;2023-12-22T14:39:14;15.20;87.20
17495;DHT22;8864;51.970;4.614;2023-12-22T14:41:42;15.20;87.20
17495;DHT22;8864;51.970;4.614;2023-12-22T14:44:09;15.20;87.20
17495;DHT22;8864;51.970;4.614;2023-12-22T14:46:39;15.20;87.20
17495;DHT22;8864;51.970;4.614;2023-12-22T14:49:08;15.20;87.20
17495;DHT22;8864;51.970;4.614;2023-12-22T14:51:36;15.20;87.30
17495;DHT22;8864;51.970;4.614;2023-12-22T14:54:04;15.20;87.20
17495;DHT22;8864;51.970;4.614;2023-12-22T14:56:31;15.20;87.20
17495;DHT22;8864;51.970;4.614;2023-12-22T14:58:58;15.20;87.20
17495;DHT22;8864;51.970;4.614;2023-12-22T15:01:25;15.20;87.20
17495;DHT22;8864;51.970;4.614;2023-12-22T15:03:52;15.20;87.30
17495;DHT22;8864;51.970;4.614;2023-12-22T15:06:21;15.20;87.30
17495;DHT22;8864;51.970;4.614;2023-12-22T15:08:48;15.20;87.20
17495;DHT22;8864;51.970;4.614;2023-12-22T15:11:15;15.20;87.10
17495;DHT22;8864;51.970;4.614;2023-12-22T15:13:43;15.20;87.00
17495;DHT22;8864;51.970;4.614;2023-12-22T15:16:10;15.20;86.90
17495;DHT22;8864;51.970;4.614;2023-12-22T15:18:37;15.20;86.90
17495;DHT22;8864;51.970;4.614;2023-12-22T15:21:04;15.20;86.80
17495;DHT22;8864;51.970;4.614;2023-12-22T15:23:33;15.20;86.70
17495;DHT22;8864;51.970;4.614;2023-12-22T15:26:00;15.20;86.60
17495;DHT22;8864;51.970;4.614;2023-12-22T15:28:27;15.20;86.60
17495;DHT22;8864;51.970;4.614;2023-12-22T15:30:54;15.20;86.60
17495;DHT22;8864;51.970;4.614;2023-12-22T15:33:21;15.20;86.50
17495;DHT22;8864;51.970;4.614;2023-12-22T15:35:48;15.20;86.40
17495;DHT22;8864;51.970;4.614;2023-12-22T15:38:21;15.20;86.40
17495;DHT22;8864;51.970;4.614;2023-12-22T15:40:49;15.20;86.40
17495;DHT22;8864;51.970;4.614;2023-12-22T15:43:16;15.20;86.40
17495;DHT22;8864;51.970;4.614;2023-12-22T15:45:43;15.20;86.30
17495;DHT22;8864;51.970;4.614;2023-12-22T15:48:10;15.10;86.20
17495;DHT22;8864;51.970;4.614;2023-12-22T15:50:37;15.10;86.10